Time;durP1;ratioP1;P1;durP2;ratioP2;P2;SDS_P1;SDS_P2;PMS_P1;PMS_P2;Temp;Humidity;BMP_temperature;BMP_pressure;BME280_temperature;BME280_humidity;BME280_pressure;Samples;Min_cycle;Max_cycle;Signal;HPM_P1;HPM_P2
2023/02/10 00:00:04;;;;;;;6.78;4.82;;;14.20;63.80;;;;;;10499183;28;20043;-56
2023/02/10 00:05:05;;;;;;;5.50;4.25;;;14.20;63.90;;;;;;10492662;28;20025;-54
2023/02/10 00:10:06;;;;;;;7.53;4.45;;;14.20;64.00;;;;;;10471297;28;20044;-56
2023/02/10 00:15:08;;;;;;;5.50;4.80;;;14.10;63.40;;;;;;10489057;28;20017;-58
2023/02/10 00:20:09;;;;;;;7.40;5.03;;;14.10;62.90;;;;;;10465347;28;20096;-56
2023/02/10 00:25:10;;;;;;;7.53;5.00;;;14.10;62.90;;;;;;10470715;28;20017;-54
2023/02/10 00:30:11;;;;;;;8.23;5.25;;;14.10;62.80;;;;;;10480542;28;20525;-56
2023/02/10 00:35:12;;;;;;;5.72;4.40;;;14.10;62.90;;;;;;10490539;28;20489;-57
2023/02/10 00:40:12;;;;;;;5.50;4.13;;;14.10;63.70;;;;;;10473325;28;20128;-56
2023/02/10 00:45:13;;;;;;;7.07;4.90;;;14.00;63.90;;;;;;10470501;28;20367;-54
2023/02/10 00:50:14;;;;;;;6.53;5.13;;;14.00;63.90;;;;;;10488604;28;20084;-56
2023/02/10 00:55:15;;;;;;;7.13;4.80;;;14.00;64.10;;;;;;10487863;28;20103;-55
2023/02/10 01:00:17;;;;;;;5.43;4.45;;;14.00;64.00;;;;;;10487795;28;20039;-54
2023/02/10 01:05:17;;;;;;;6.30;4.95;;;14.00;64.10;;;;;;10441212;28;20021;-57
2023/02/10 01:10:19;;;;;;;6.70;5.32;;;13.90;64.10;;;;;;10487819;28;20104;-55
2023/02/10 01:15:20;;;;;;;6.50;4.82;;;13.90;64.30;;;;;;10487353;28;20401;-56
2023/02/10 01:20:20;;;;;;;6.13;4.55;;;13.90;64.20;;;;;;10494771;28;20029;-56
2023/02/10 01:25:21;;;;;;;6.00;5.20;;;13.90;64.30;;;;;;10469239;28;20025;-57
2023/02/10 01:30:22;;;;;;;5.60;4.55;;;13.90;64.30;;;;;;10486874;28;20364;-58
2023/02/10 01:35:22;;;;;;;6.13;4.90;;;13.90;64.10;;;;;;10468895;28;20434;-55
2023/02/10 01:40:27;;;;;;;6.75;5.50;;;13.90;64.20;;;;;;10452742;28;20028;-54
2023/02/10 01:45:37;;;;;;;6.22;4.93;;;13.80;64.00;;;;;;10469202;28;20033;-56
2023/02/10 01:50:52;;;;;;;6.00;4.60;;;13.80;64.20;;;;;;10472886;28;20032;-57
2023/02/10 01:55:56;;;;;;;5.30;4.60;;;13.80;64.20;;;;;;10465287;28;20055;-55
2023/02/10 02:00:58;;;;;;;5.35;4.38;;;13.80;64.00;;;;;;10494727;28;20501;-56
2023/02/10 02:05:59;;;;;;;5.47;4.43;;;13.80;64.20;;;;;;10464487;28;20616;-56
2023/02/10 02:11:42;;;;;;;6.25;4.60;;;13.80;64.10;;;;;;10476292;28;20032;-56
2023/02/10 02:17:17;;;;;;;5.18;4.68;;;13.80;64.00;;;;;;10493161;28;20009;-55
2023/02/10 02:22:52;;;;;;;7.10;4.88;;;13.70;64.10;;;;;;10507847;28;20090;-56
2023/02/10 02:28:10;;;;;;;5.80;4.15;;;13.80;64.30;;;;;;10475206;28;20152;-55
2023/02/10 02:33:19;;;;;;;6.03;4.75;;;13.70;64.20;;;;;;10493331;28;20028;-56
2023/02/10 02:38:19;;;;;;;4.43;3.90;;;13.70;64.20;;;;;;10475495;28;20717;-56
2023/02/10 02:43:21;;;;;;;5.38;4.47;;;13.70;63.70;;;;;;10475123;28;20542;-56
2023/02/10 02:48:58;;;;;;;6.15;4.82;;;13.70;63.10;;;;;;10474455;28;20401;-57
2023/02/10 02:54:31;;;;;;;5.03;4.28;;;13.70;62.90;;;;;;10491595;28;20522;-56
2023/02/10 02:59:47;;;;;;;6.28;4.72;;;13.70;62.80;;;;;;10459829;28;20020;-56
2023/02/10 03:04:48;;;;;;;6.07;4.95;;;13.70;63.20;;;;;;10469469;28;20032;-56
2023/02/10 03:09:49;;;;;;;4.68;3.72;;;13.70;63.50;;;;;;10474577;28;20021;-56
2023/02/10 03:14:50;;;;;;;4.70;3.90;;;13.70;63.50;;;;;;10491615;28;20040;-55
2023/02/10 03:19:50;;;;;;;5.65;4.85;;;13.60;63.80;;;;;;10451721;28;20028;-56
2023/02/10 03:24:51;;;;;;;6.03;4.47;;;13.60;63.80;;;;;;10473345;28;20486;-56
2023/02/10 03:29:52;;;;;;;6.25;4.50;;;13.60;63.70;;;;;;10479641;28;20085;-55
2023/02/10 03:34:52;;;;;;;5.93;4.40;;;13.60;63.90;;;;;;10476333;28;20356;-56
2023/02/10 03:39:53;;;;;;;5.78;4.97;;;13.60;64.30;;;;;;10473058;28;20515;-56
2023/02/10 03:44:54;;;;;;;4.90;3.97;;;13.60;62.70;;;;;;10472478;28;20506;-56
2023/02/10 03:49:54;;;;;;;5.90;4.32;;;13.80;62.80;;;;;;10472451;28;20042;-54
2023/02/10 03:54:55;;;;;;;5.18;4.10;;;13.90;62.30;;;;;;10472151;28;20070;-56
2023/02/10 03:59:56;;;;;;;5.00;4.05;;;14.10;61.80;;;;;;10471231;28;20056;-56
2023/02/10 04:04:56;;;;;;;5.03;3.97;;;14.30;61.20;;;;;;10471741;28;20033;-56
2023/02/10 04:09:57;;;;;;;5.15;3.72;;;14.40;60.80;;;;;;10489510;28;20108;-56
2023/02/10 04:14:58;;;;;;;5.95;4.38;;;14.60;60.30;;;;;;10470901;28;20017;-56
2023/02/10 04:19:58;;;;;;;5.72;4.15;;;14.80;59.80;;;;;;10481476;28;20043;-56
2023/02/10 04:24:59;;;;;;;5.72;3.65;;;15.00;59.20;;;;;;10488998;28;20027;-57
2023/02/10 04:30:00;;;;;;;4.50;3.40;;;15.20;58.50;;;;;;10488563;28;20075;-56
2023/02/10 04:35:01;;;;;;;4.53;3.83;;;15.40;58.20;;;;;;10470753;28;20491;-55
2023/02/10 04:40:02;;;;;;;5.28;4.30;;;15.50;57.70;;;;;;10470897;28;20024;-55
2023/02/10 04:45:03;;;;;;;4.20;3.03;;;15.60;57.70;;;;;;10470385;28;20020;-57
2023/02/10 04:50:05;;;;;;;3.42;2.85;;;15.70;57.50;;;;;;10472290;28;20729;-56
2023/02/10 04:55:06;;;;;;;4.10;3.13;;;15.70;57.40;;;;;;10470088;28;20105;-55
2023/02/10 05:00:08;;;;;;;4.85;3.63;;;15.80;57.50;;;;;;10474291;28;20058;-57
2023/02/10 05:05:11;;;;;;;4.38;3.28;;;15.80;57.30;;;;;;10442968;28;20024;-55
2023/02/10 05:10:12;;;;;;;4.82;3.35;;;15.80;57.20;;;;;;10470152;28;20033;-57
2023/02/10 05:15:13;;;;;;;3.53;2.80;;;15.90;57.20;;;;;;10487772;28;20021;-55
2023/02/10 05:20:13;;;;;;;3.58;2.67;;;16.00;57.10;;;;;;10485379;28;20052;-56
2023/02/10 05:25:14;;;;;;;4.07;3.08;;;16.00;56.90;;;;;;10471872;28;20048;-55
2023/02/10 05:30:15;;;;;;;4.00;2.83;;;16.10;56.90;;;;;;10498907;28;20041;-55
2023/02/10 05:35:15;;;;;;;3.63;2.92;;;16.10;56.90;;;;;;10507347;28;20020;-56
2023/02/10 05:40:16;;;;;;;4.22;2.90;;;16.20;57.00;;;;;;10477453;28;20035;-56
2023/02/10 05:45:17;;;;;;;4.25;2.95;;;16.10;56.90;;;;;;10475674;28;20020;-55
2023/02/10 05:50:18;;;;;;;6.32;3.63;;;16.20;57.00;;;;;;10476256;28;20043;-55
2023/02/10 05:55:19;;;;;;;8.43;5.00;;;16.20;57.20;;;;;;10494682;28;20052;-53
2023/02/10 06:00:20;;;;;;;8.05;6.07;;;16.30;57.50;;;;;;10493086;28;20067;-54
2023/02/10 06:05:20;;;;;;;7.13;5.80;;;16.50;57.90;;;;;;10490346;28;20078;-55
2023/02/10 06:10:21;;;;;;;9.30;5.70;;;16.60;58.70;;;;;;10490672;28;20062;-56
2023/02/10 06:15:22;;;;;;;7.85;5.18;;;16.60;59.20;;;;;;10455951;28;20112;-54
2023/02/10 06:20:23;;;;;;;10.23;5.00;;;16.70;58.70;;;;;;10482463;28;20020;-55
2023/02/10 06:25:23;;;;;;;11.95;6.45;;;16.70;60.20;;;;;;10472442;28;20103;-56
2023/02/10 06:30:24;;;;;;;13.50;6.10;;;16.70;59.80;;;;;;10473657;28;20059;-57
2023/02/10 06:35:25;;;;;;;9.80;5.05;;;16.80;59.20;;;;;;10482010;28;20025;-57
2023/02/10 06:40:25;;;;;;;7.93;4.97;;;16.80;59.90;;;;;;10504602;28;20024;-57
2023/02/10 06:45:27;;;;;;;11.52;5.85;;;16.90;59.60;;;;;;10506815;28;20104;-55
2023/02/10 06:50:28;;;;;;;11.98;6.22;;;16.90;59.50;;;;;;10468323;28;20024;-55
2023/02/10 06:55:29;;;;;;;19.27;7.03;;;16.70;59.40;;;;;;10492391;28;20051;-56
2023/02/10 07:00:31;;;;;;;14.40;5.75;;;16.60;59.90;;;;;;10474950;28;20064;-56
2023/02/10 07:05:35;;;;;;;18.23;6.10;;;16.70;60.00;;;;;;10453606;28;20025;-57
2023/02/10 07:10:36;;;;;;;19.20;6.15;;;16.70;60.30;;;;;;10472547;28;20025;-60
2023/02/10 07:15:36;;;;;;;22.48;6.28;;;16.50;60.50;;;;;;10489487;28;20502;-55
2023/02/10 07:20:37;;;;;;;18.38;7.00;;;16.50;60.90;;;;;;10470945;28;20107;-57
2023/02/10 07:25:38;;;;;;;18.70;6.35;;;16.70;60.60;;;;;;10471515;28;20025;-55
2023/02/10 07:30:38;;;;;;;20.55;6.57;;;16.80;60.50;;;;;;10489616;28;20076;-56
2023/02/10 07:35:39;;;;;;;27.98;6.90;;;16.80;59.80;;;;;;10489568;28;20021;-55
2023/02/10 07:40:40;;;;;;;15.10;5.97;;;16.80;59.30;;;;;;10494520;28;20032;-58
2023/02/10 07:45:40;;;;;;;21.75;6.00;;;16.90;59.20;;;;;;10472785;28;20127;-56
2023/02/10 07:50:41;;;;;;;17.92;6.32;;;16.90;59.40;;;;;;10458018;28;20115;-56
2023/02/10 07:55:42;;;;;;;20.50;6.28;;;16.90;59.40;;;;;;10466930;28;20112;-55
2023/02/10 08:00:42;;;;;;;21.52;6.93;;;17.00;59.60;;;;;;10471598;28;20025;-57
2023/02/10 08:05:43;;;;;;;32.83;6.50;;;17.00;59.30;;;;;;10471375;28;20634;-58
2023/02/10 08:10:44;;;;;;;15.95;6.88;;;17.00;59.30;;;;;;10470441;28;20047;-56
2023/02/10 08:15:44;;;;;;;17.25;6.70;;;17.00;59.40;;;;;;10474930;28;20025;-56
2023/02/10 08:20:45;;;;;;;18.65;6.38;;;17.00;59.30;;;;;;10488915;28;20166;-55
2023/02/10 08:25:46;;;;;;;25.92;7.18;;;17.00;59.10;;;;;;10488595;28;20781;-57
2023/02/10 08:30:46;;;;;;;20.60;8.18;;;17.00;58.90;;;;;;10470173;28;20044;-56
2023/02/10 08:35:48;;;;;;;19.08;7.03;;;17.10;58.40;;;;;;10488355;28;20394;-56
2023/02/10 08:40:58;;;;;;;16.90;7.75;;;17.10;58.00;;;;;;10488279;28;20388;-57
2023/02/10 08:46:00;;;;;;;23.40;8.77;;;17.10;57.70;;;;;;10471060;28;20056;-58
2023/02/10 08:51:07;;;;;;;17.95;6.70;;;17.10;57.50;;;;;;10476086;28;20028;-56
2023/02/10 08:56:13;;;;;;;12.80;6.90;;;17.10;57.40;;;;;;10487860;28;20027;-54
2023/02/10 09:01:22;;;;;;;13.05;7.43;;;17.20;57.20;;;;;;10474382;28;20609;-58
2023/02/10 09:06:38;;;;;;;14.50;6.18;;;16.90;59.40;;;;;;10475271;28;20061;-56
2023/02/10 09:11:40;;;;;;;10.60;6.40;;;17.10;62.70;;;;;;10438326;28;20539;-56
2023/02/10 09:16:40;;;;;;;14.18;7.13;;;17.10;62.60;;;;;;10487040;28;20086;-55
2023/02/10 09:21:41;;;;;;;13.82;5.57;;;17.10;60.70;;;;;;10475301;28;20163;-54
2023/02/10 09:26:43;;;;;;;17.45;5.95;;;17.20;60.30;;;;;;10495814;28;20112;-56
2023/02/10 09:31:44;;;;;;;11.45;5.53;;;17.20;60.10;;;;;;10469638;28;20028;-56
2023/02/10 09:36:45;;;;;;;10.93;5.30;;;17.10;60.60;;;;;;10488032;28;20060;-58
2023/02/10 09:41:55;;;;;;;11.48;6.15;;;17.20;60.50;;;;;;10458094;28;20108;-57
2023/02/10 09:47:28;;;;;;;13.55;6.18;;;17.30;60.70;;;;;;10485655;28;20027;-57
2023/02/10 09:53:16;;;;;;;15.27;5.93;;;17.30;60.40;;;;;;10452043;28;20519;-57
2023/02/10 09:58:37;;;;;;;14.40;6.55;;;17.40;60.50;;;;;;10487357;28;20031;-57
2023/02/10 10:04:05;;;;;;;10.38;5.25;;;17.30;60.00;;;;;;10470124;28;20029;-57
2023/02/10 10:09:08;;;;;;;11.35;5.55;;;17.50;59.20;;;;;;10472364;28;20036;-59
2023/02/10 10:14:37;;;;;;;11.95;5.22;;;17.30;59.80;;;;;;10484772;28;20030;-56
2023/02/10 10:19:43;;;;;;;15.50;5.88;;;17.40;59.80;;;;;;10481875;28;20056;-58
2023/02/10 10:25:22;;;;;;;17.45;8.25;;;17.50;60.00;;;;;;10493400;28;20123;-57
2023/02/10 10:30:44;;;;;;;13.13;6.15;;;17.60;59.90;;;;;;10475358;28;20132;-58
2023/02/10 10:35:45;;;;;;;11.35;5.30;;;17.50;60.30;;;;;;10492737;28;20009;-57
2023/02/10 10:40:47;;;;;;;16.60;5.93;;;17.60;60.30;;;;;;10474352;28;20013;-58
2023/02/10 10:45:53;;;;;;;19.65;6.20;;;17.60;60.30;;;;;;10474622;28;20028;-56
2023/02/10 10:51:01;;;;;;;18.95;6.13;;;17.70;60.30;;;;;;10460857;28;20028;-58
2023/02/10 10:56:12;;;;;;;21.75;6.28;;;17.60;60.90;;;;;;10481846;28;20040;-59
2023/02/10 11:01:15;;;;;;;14.30;6.30;;;17.60;60.60;;;;;;10475213;28;20028;-55
2023/02/10 11:06:18;;;;;;;13.60;6.05;;;17.50;60.60;;;;;;10475927;28;20039;-57
2023/02/10 11:11:19;;;;;;;20.48;7.57;;;17.60;60.90;;;;;;10484060;28;20049;-56
2023/02/10 11:16:20;;;;;;;15.10;5.32;;;17.70;60.90;;;;;;10473591;28;20017;-55
2023/02/10 11:21:37;;;;;;;12.57;6.18;;;17.90;60.80;;;;;;10474154;28;20048;-55
2023/02/10 11:26:39;;;;;;;12.82;5.90;;;17.80;60.90;;;;;;10483008;28;20341;-56
2023/02/10 11:31:40;;;;;;;12.70;5.00;;;17.90;60.90;;;;;;10470985;28;20031;-56
2023/02/10 11:36:42;;;;;;;10.35;6.20;;;18.00;61.10;;;;;;10470828;28;20017;-56
2023/02/10 11:41:43;;;;;;;12.52;5.72;;;17.90;61.30;;;;;;10471279;28;20563;-56
2023/02/10 11:46:58;;;;;;;10.65;4.90;;;18.00;60.80;;;;;;10473415;28;20098;-56
2023/02/10 11:52:01;;;;;;;10.70;5.25;;;17.80;61.70;;;;;;10489688;28;20021;-57
2023/02/10 12:03:35;;;;;;;25.92;5.25;;;17.80;61.80;;;;;;10488842;28;20032;-56
2023/02/10 12:08:53;;;;;;;15.35;5.43;;;17.80;62.10;;;;;;10487043;28;20029;-56
2023/02/10 12:14:15;;;;;;;8.88;5.68;;;17.80;62.10;;;;;;10499708;28;20043;-56
2023/02/10 12:19:39;;;;;;;11.10;5.20;;;17.70;62.00;;;;;;10495111;28;20230;-57
2023/02/10 12:25:05;;;;;;;12.63;5.50;;;17.90;61.70;;;;;;10468894;28;20047;-56
2023/02/10 12:30:27;;;;;;;10.88;4.93;;;17.80;62.10;;;;;;10453893;28;20522;-58
2023/02/10 12:36:03;;;;;;;10.68;5.65;;;17.70;62.20;;;;;;10480369;28;20103;-55
2023/02/10 12:41:34;;;;;;;8.43;4.57;;;17.60;62.90;;;;;;10492864;28;20048;-56
2023/02/10 12:47:22;;;;;;;11.43;5.93;;;17.40;63.80;;;;;;10482319;28;20020;-57
2023/02/10 12:52:41;;;;;;;10.48;4.45;;;17.30;63.80;;;;;;10487613;28;20097;-58
2023/02/10 12:57:54;;;;;;;11.43;3.90;;;17.30;64.00;;;;;;10501387;28;20052;-58
2023/02/10 13:03:17;;;;;;;8.07;4.68;;;17.30;64.20;;;;;;10478413;28;20044;-55
2023/02/10 13:08:32;;;;;;;10.50;4.63;;;17.20;64.20;;;;;;10461473;28;20408;-55
2023/02/10 13:13:33;;;;;;;16.67;4.85;;;17.20;64.60;;;;;;10450805;28;20021;-56
2023/02/10 13:18:52;;;;;;;10.15;5.00;;;17.10;64.70;;;;;;10466992;28;20033;-56
2023/02/10 13:24:11;;;;;;;12.75;5.00;;;17.20;64.70;;;;;;10464662;28;20029;-58
2023/02/10 13:29:51;;;;;;;12.30;5.68;;;17.10;64.90;;;;;;10483942;28;20119;-58
2023/02/10 13:34:57;;;;;;;18.58;5.72;;;17.10;65.20;;;;;;10480374;28;20024;-55
2023/02/10 13:40:02;;;;;;;9.60;4.38;;;17.00;65.50;;;;;;10467700;28;20357;-58
2023/02/10 13:45:17;;;;;;;13.32;5.07;;;16.90;66.00;;;;;;10482829;28;20020;-58
2023/02/10 13:50:38;;;;;;;13.35;5.28;;;16.90;66.10;;;;;;10486344;28;20028;-54
2023/02/10 13:55:43;;;;;;;11.98;5.07;;;17.00;65.90;;;;;;10492916;28;20031;-57
2023/02/10 14:00:49;;;;;;;19.42;5.63;;;17.00;65.80;;;;;;10490641;28;20025;-55
2023/02/10 14:06:06;;;;;;;13.98;5.07;;;17.00;65.30;;;;;;10475658;28;20032;-57
2023/02/10 14:11:16;;;;;;;17.00;4.60;;;17.00;65.10;;;;;;10493720;28;20033;-57
2023/02/10 14:16:16;;;;;;;13.88;4.45;;;16.90;65.00;;;;;;10476033;28;20357;-57
2023/02/10 14:21:18;;;;;;;10.98;5.43;;;17.00;64.70;;;;;;10493135;28;20021;-57
2023/02/10 14:26:34;;;;;;;13.80;6.88;;;17.00;64.60;;;;;;10458614;28;20051;-57
2023/02/10 14:31:38;;;;;;;11.80;4.60;;;17.00;64.50;;;;;;10475789;28;20120;-56
2023/02/10 14:36:39;;;;;;;13.43;6.05;;;17.10;64.20;;;;;;10475238;28;20105;-57
2023/02/10 14:41:39;;;;;;;13.63;5.20;;;17.00;63.60;;;;;;10492926;28;20040;-58
2023/02/10 14:46:46;;;;;;;10.15;5.78;;;17.30;62.40;;;;;;10491526;28;20051;-58
2023/02/10 14:51:48;;;;;;;11.43;5.50;;;17.50;62.00;;;;;;10475428;28;20384;-56
2023/02/10 14:56:58;;;;;;;12.02;6.35;;;17.60;61.60;;;;;;10474642;28;20076;-57
2023/02/10 15:02:20;;;;;;;8.98;5.03;;;17.60;61.20;;;;;;10474409;28;20376;-62
2023/02/10 15:07:27;;;;;;;19.55;5.25;;;17.60;61.10;;;;;;10454302;28;20032;-56
2023/02/10 15:12:29;;;;;;;16.00;7.10;;;17.40;62.10;;;;;;10492294;28;20044;-56
2023/02/10 15:17:44;;;;;;;16.55;6.78;;;17.80;61.00;;;;;;10484727;28;20045;-54
2023/02/10 15:22:51;;;;;;;14.88;7.20;;;17.90;61.10;;;;;;10488077;28;20111;-55
2023/02/10 15:27:54;;;;;;;18.60;7.05;;;17.70;61.60;;;;;;10490536;28;20120;-56
2023/02/10 15:32:58;;;;;;;19.15;6.93;;;17.70;61.50;;;;;;10506833;28;20519;-53
2023/02/10 15:38:03;;;;;;;15.10;7.00;;;17.50;62.10;;;;;;10488629;28;20578;-56
2023/02/10 15:43:23;;;;;;;17.33;7.32;;;17.50;62.60;;;;;;10468762;28;20082;-56
2023/02/10 15:48:24;;;;;;;22.00;7.95;;;17.30;62.80;;;;;;10465490;28;20017;-56
2023/02/10 15:53:24;;;;;;;27.85;8.70;;;17.20;63.70;;;;;;10489708;28;20044;-59
2023/02/10 15:58:25;;;;;;;29.63;8.48;;;17.00;64.60;;;;;;10458444;28;20119;-56
2023/02/10 16:03:26;;;;;;;57.78;11.32;;;16.90;65.20;;;;;;10491341;28;20013;-56
2023/02/10 16:08:27;;;;;;;24.38;8.38;;;16.90;65.50;;;;;;10485932;28;20877;-56
2023/02/10 16:13:28;;;;;;;30.70;9.20;;;17.10;65.00;;;;;;10469347;28;20035;-53
2023/02/10 16:18:29;;;;;;;28.10;8.73;;;17.00;65.20;;;;;;10488607;28;20020;-57
2023/02/10 16:23:30;;;;;;;22.83;7.85;;;17.10;65.20;;;;;;10469523;28;20035;-58
2023/02/10 16:28:31;;;;;;;31.83;8.35;;;17.00;65.70;;;;;;10468460;28;20080;-57
2023/02/10 16:33:34;;;;;;;22.70;8.50;;;16.80;65.40;;;;;;10486834;28;20029;-54
2023/02/10 16:38:34;;;;;;;19.95;8.93;;;16.60;64.90;;;;;;10485920;28;20028;-58
2023/02/10 16:43:35;;;;;;;25.95;11.02;;;16.50;65.10;;;;;;10483698;28;20115;-55
2023/02/10 16:48:36;;;;;;;23.02;11.02;;;16.60;64.10;;;;;;10486055;28;20030;-56
2023/02/10 16:53:37;;;;;;;20.88;11.73;;;16.70;63.40;;;;;;10468101;28;20038;-56
2023/02/10 16:58:37;;;;;;;21.88;12.98;;;17.10;61.70;;;;;;10466790;28;20877;-59
2023/02/10 17:03:39;;;;;;;28.20;12.85;;;17.50;60.50;;;;;;10473048;28;20099;-56
2023/02/10 17:08:39;;;;;;;28.67;14.55;;;17.40;63.50;;;;;;10486209;28;20485;-58
2023/02/10 17:13:40;;;;;;;31.80;12.73;;;17.80;64.10;;;;;;10498783;28;20073;-57
2023/02/10 17:18:41;;;;;;;33.80;12.75;;;18.00;64.50;;;;;;10489762;28;20025;-59
2023/02/10 17:23:41;;;;;;;24.48;11.48;;;17.90;64.80;;;;;;10495669;28;20070;-59
2023/02/10 17:28:42;;;;;;;31.48;12.30;;;17.90;65.00;;;;;;10477509;28;20073;-56
2023/02/10 17:33:48;;;;;;;24.25;12.25;;;18.00;65.00;;;;;;10477828;28;20044;-58
2023/02/10 17:38:50;;;;;;;27.83;11.35;;;17.90;64.90;;;;;;10461142;28;20017;-59
2023/02/10 17:43:54;;;;;;;22.25;10.45;;;17.90;64.10;;;;;;10489414;28;20364;-58
2023/02/10 17:48:57;;;;;;;27.15;10.40;;;17.80;64.10;;;;;;10492299;28;20115;-57
2023/02/10 17:53:57;;;;;;;21.88;11.13;;;17.90;64.00;;;;;;10503426;28;20014;-56
2023/02/10 17:58:58;;;;;;;18.67;9.93;;;18.10;62.60;;;;;;10476669;28;20111;-59
2023/02/10 18:03:59;;;;;;;18.33;8.63;;;18.10;62.20;;;;;;10473935;28;20020;-58
2023/02/10 18:09:00;;;;;;;28.30;9.57;;;18.10;61.80;;;;;;10484595;28;20033;-58
2023/02/10 18:14:01;;;;;;;20.08;9.38;;;18.10;61.50;;;;;;10493017;28;20017;-58
2023/02/10 18:19:02;;;;;;;16.13;8.43;;;18.20;61.40;;;;;;10490516;28;20025;-58
2023/02/10 18:24:03;;;;;;;20.65;9.90;;;18.10;61.50;;;;;;10476531;28;20017;-57
2023/02/10 18:29:03;;;;;;;15.23;8.00;;;18.10;61.80;;;;;;10475897;28;20148;-59
2023/02/10 18:34:05;;;;;;;18.35;8.55;;;18.10;62.40;;;;;;10486478;28;20475;-57
2023/02/10 18:39:06;;;;;;;17.77;8.77;;;18.20;62.10;;;;;;10466448;28;20020;-57
2023/02/10 18:44:07;;;;;;;15.88;8.45;;;18.10;61.80;;;;;;10488198;28;20066;-58
2023/02/10 18:49:08;;;;;;;19.73;7.57;;;18.00;61.70;;;;;;10490938;28;20115;-57
2023/02/10 18:54:09;;;;;;;15.43;8.23;;;17.90;61.80;;;;;;10482413;28;20065;-57
2023/02/10 18:59:09;;;;;;;13.40;7.75;;;17.70;62.40;;;;;;10486408;28;20028;-55
2023/02/10 19:04:10;;;;;;;13.10;8.25;;;17.70;62.10;;;;;;10491416;28;20531;-57
2023/02/10 19:09:13;;;;;;;12.98;6.85;;;17.70;62.00;;;;;;10489099;28;20396;-57
2023/02/10 19:14:15;;;;;;;14.82;7.40;;;17.80;61.70;;;;;;10472898;28;20510;-58
2023/02/10 19:19:15;;;;;;;16.38;7.43;;;17.80;61.60;;;;;;10456158;28;20033;-58
2023/02/10 19:24:16;;;;;;;11.32;7.38;;;17.70;61.70;;;;;;10491248;28;20467;-57
2023/02/10 19:29:17;;;;;;;12.93;7.75;;;17.70;61.80;;;;;;10471411;28;20043;-56
2023/02/10 19:34:17;;;;;;;12.55;7.18;;;17.70;62.00;;;;;;10481223;28;20034;-56
2023/02/10 19:39:18;;;;;;;10.40;7.10;;;17.80;62.50;;;;;;10474125;28;20040;-57
2023/02/10 19:44:22;;;;;;;14.57;8.05;;;17.70;62.80;;;;;;10471874;28;20032;-57
2023/02/10 19:49:23;;;;;;;12.00;7.53;;;17.70;63.20;;;;;;10472735;28;20021;-57
2023/02/10 19:54:25;;;;;;;12.43;7.38;;;17.60;63.10;;;;;;10455993;28;20021;-56
2023/02/10 19:59:26;;;;;;;11.07;6.90;;;17.60;63.40;;;;;;10486980;28;20108;-57
2023/02/10 20:04:27;;;;;;;14.93;8.23;;;17.60;63.40;;;;;;10472530;28;20016;-57
2023/02/10 20:09:28;;;;;;;9.90;7.50;;;17.60;63.30;;;;;;10451604;28;20029;-57
2023/02/10 20:14:28;;;;;;;11.35;6.63;;;17.50;63.40;;;;;;10488980;28;20025;-56
2023/02/10 20:19:29;;;;;;;12.15;7.32;;;17.50;63.80;;;;;;10488982;28;20051;-57
2023/02/10 20:24:30;;;;;;;12.13;6.32;;;17.50;63.70;;;;;;10480273;28;20029;-58
2023/02/10 20:29:31;;;;;;;10.32;6.35;;;17.50;63.60;;;;;;10470283;28;20127;-58
2023/02/10 20:34:31;;;;;;;10.45;6.70;;;17.50;63.80;;;;;;10480054;28;20023;-57
2023/02/10 20:39:33;;;;;;;9.98;6.93;;;17.40;64.20;;;;;;10497844;28;20049;-56
2023/02/10 20:44:34;;;;;;;9.88;5.93;;;17.30;64.50;;;;;;10506720;28;20030;-58
2023/02/10 20:49:34;;;;;;;10.18;6.55;;;17.20;64.60;;;;;;10494361;28;20483;-58
2023/02/10 20:54:36;;;;;;;12.25;6.82;;;17.10;64.60;;;;;;10466972;28;20117;-59
2023/02/10 20:59:37;;;;;;;11.00;6.50;;;16.90;65.00;;;;;;10473284;28;20013;-57
2023/02/10 21:04:37;;;;;;;13.88;6.55;;;16.80;65.10;;;;;;10466075;28;20028;-59
2023/02/10 21:09:38;;;;;;;13.07;7.25;;;16.70;65.40;;;;;;10486119;28;20162;-57
2023/02/10 21:14:39;;;;;;;9.85;7.00;;;16.60;65.70;;;;;;10469464;28;20024;-57
2023/02/10 21:19:40;;;;;;;9.60;6.78;;;16.50;65.80;;;;;;10468821;28;20024;-57
2023/02/10 21:24:41;;;;;;;10.45;6.82;;;16.40;65.70;;;;;;10467574;28;20618;-59
2023/02/10 21:29:41;;;;;;;11.70;6.97;;;16.40;65.90;;;;;;10466886;28;20189;-59
2023/02/10 21:34:42;;;;;;;10.02;7.05;;;16.30;65.90;;;;;;10484623;28;20103;-55
2023/02/10 21:39:46;;;;;;;9.13;6.47;;;16.20;65.90;;;;;;10486092;28;20033;-58
2023/02/10 21:44:46;;;;;;;14.02;7.30;;;16.20;66.00;;;;;;10486765;28;20020;-58
2023/02/10 21:49:47;;;;;;;13.57;7.53;;;16.20;66.00;;;;;;10451871;28;20036;-56
2023/02/10 21:54:48;;;;;;;9.95;7.35;;;16.10;66.00;;;;;;10481498;28;20025;-58
2023/02/10 21:59:49;;;;;;;9.60;7.25;;;16.00;66.00;;;;;;10485718;28;20020;-58
2023/02/10 22:04:49;;;;;;;10.07;7.10;;;16.00;66.10;;;;;;10464039;28;20468;-59
2023/02/10 22:09:50;;;;;;;9.35;6.88;;;16.00;66.20;;;;;;10493305;28;20455;-58
2023/02/10 22:14:51;;;;;;;8.30;6.60;;;15.90;66.10;;;;;;10475917;28;20015;-59
2023/02/10 22:19:52;;;;;;;10.32;7.40;;;15.90;66.20;;;;;;10458782;28;20016;-58
2023/02/10 22:24:52;;;;;;;9.80;6.43;;;15.80;66.10;;;;;;10492995;28;20104;-59
2023/02/10 22:29:53;;;;;;;9.23;7.40;;;15.80;66.20;;;;;;10492497;28;20036;-58
2023/02/10 22:34:54;;;;;;;10.27;6.72;;;15.80;66.20;;;;;;10474516;28;20096;-57
2023/02/10 22:39:54;;;;;;;9.73;7.28;;;15.80;66.30;;;;;;10494895;28;20021;-59
2023/02/10 22:44:55;;;;;;;11.05;7.00;;;15.70;66.30;;;;;;10474948;28;20104;-58
2023/02/10 22:49:57;;;;;;;8.18;6.57;;;15.70;66.30;;;;;;10492666;28;20507;-60
2023/02/10 22:54:59;;;;;;;8.10;6.10;;;15.70;66.30;;;;;;10474648;28;20094;-58
2023/02/10 22:59:59;;;;;;;9.02;6.20;;;15.60;66.40;;;;;;10474175;28;20020;-58
2023/02/10 23:05:00;;;;;;;8.80;6.95;;;15.60;66.40;;;;;;10473971;28;20025;-58
2023/02/10 23:10:01;;;;;;;8.82;6.05;;;15.60;66.40;;;;;;10492054;28;20037;-57
2023/02/10 23:15:02;;;;;;;8.20;6.07;;;15.50;66.20;;;;;;10473938;28;20023;-59
2023/02/10 23:20:04;;;;;;;10.50;7.13;;;15.50;66.20;;;;;;10472563;28;20032;-58
2023/02/10 23:25:05;;;;;;;9.27;6.20;;;15.50;66.30;;;;;;10447214;28;20032;-59
2023/02/10 23:30:09;;;;;;;7.53;6.07;;;15.50;66.20;;;;;;10472755;28;20131;-58
2023/02/10 23:35:10;;;;;;;9.15;6.47;;;15.50;66.30;;;;;;10490789;28;20513;-58
2023/02/10 23:40:11;;;;;;;7.63;5.43;;;15.40;66.20;;;;;;10451332;28;20016;-59
2023/02/10 23:45:11;;;;;;;7.95;5.65;;;15.40;66.30;;;;;;10472301;28;20120;-58
2023/02/10 23:50:12;;;;;;;8.02;6.13;;;15.40;66.30;;;;;;10472338;28;20028;-56
2023/02/10 23:55:12;;;;;;;9.50;6.82;;;15.40;66.20;;;;;;10471806;28;20012;-58
